Flight Track Log - Related Links

Times and Time Zones

All times are in EDT time to prevent confusion due to time zone crossing. See the JBU1329 flight status page for this flight to view local times or setup timezone preferences in your user account.

Time Position Orientation Groundspeed Altitude Reporting Facility
EDT Latitude Longitude Course Direction KTS MPH feet Rate Location/Type
Mon 08:28:59 42.3667 -70.9833 240° Southwest 172 198 800  Level KA90
Mon 08:29:47 42.3667 -70.9333 90° East 172 198 2,000 2,111 Climbing KA90
Mon 08:30:47 42.3833 -70.8500 75° East 223 257 4,600 2,559 Climbing KA90
Mon 08:32:00 42.2975 -70.7205 228° Southwest  Level FlightAware
Mon 08:32:03 42.3753 -70.7453 96° East 277 319 7,800  Level Boston Center
Mon 08:33:00 42.2340 -70.8157 228° Southwest  Level FlightAware
Mon 08:33:13 42.2856 -70.7450 180° South 202 232 11,300  Level Boston Center
Mon 08:34:00 42.1863 -70.9265 240° Southwest  Level FlightAware
Mon 08:34:14 42.2456 -70.8583 245° Southwest 210 242 13,200  Level Boston Center
Mon 08:35:14 42.2264 -70.9878 259° West 309 356 16,100 2,471 Climbing Boston Center
Mon 08:36:13 42.2053 -71.1200 258° West 346 398 18,100 1,966 Climbing Boston Center
Mon 08:37:13 42.1900 -71.2492 261° West 378 435 20,000 1,900 Climbing Boston Center
Mon 08:38:13 42.1683 -71.3869 258° West 383 441 21,900 1,884 Climbing Boston Center
Mon 08:39:14 42.1444 -71.5300 257° West 388 447 23,800 1,672 Climbing Boston Center
Mon 08:40:15 42.1144 -71.6733 254° West 393 452 25,300 1,190 Climbing Boston Center
Mon 08:41:15 42.0881 -71.8192 256° West 398 458 26,200 1,373 Climbing Boston Center
Mon 08:42:13 42.0639 -71.9703 258° West 398 458 28,000 915 Climbing Boston Center
Mon 08:43:13 42.0394 -72.1158 257° West 403 464 28,000  Level Boston Center
Mon 08:44:13 41.9792 -72.2475 238° Southwest 403 464 28,000  Level Boston Center
Mon 08:45:14 41.9128 -72.3758 235° Southwest 414 476 28,000  Level Boston Center
Mon 08:46:14 41.8481 -72.5014 235° Southwest 419 482 28,000  Level Boston Center
Mon 08:47:15 41.7814 -72.6294 235° Southwest 424 488 28,000  Level Boston Center
Mon 08:48:15 41.7122 -72.7600 235° Southwest 424 488 28,000  Level Boston Center
Mon 08:49:15 41.6472 -72.8844 235° Southwest 419 482 28,000  Level Boston Center
Mon 08:50:15 41.5800 -73.0117 235° Southwest 419 482 28,000  Level Boston Center
Mon 08:51:13 41.5167 -73.1386 236° Southwest 419 482 28,000  Level Boston Center
Mon 08:52:13 41.4492 -73.2681 235° Southwest 424 488 28,000  Level Boston Center
Mon 08:54:00 41.3303 -73.4928 235° Southwest 413 475 28,000  Level New Center
Mon 08:55:01 41.2628 -73.6169 234° Southwest 418 481 28,000 -102 Level New Center
Mon 08:55:58 41.1889 -73.7406 232° Southwest 423 487 27,800 -763 Descending New Center
Mon 08:56:59 41.1169 -73.8614 232° Southwest 428 493 26,500 -885 Descending New Center
Mon 08:58:00 41.0450 -73.9844 232° Southwest 428 493 26,000 -248 Descending New Center
Mon 08:59:00 40.9686 -74.1100 231° Southwest 433 498 26,000  Level New Center
Mon 08:59:59 40.8856 -74.2403 230° Southwest 433 498 26,000  Level New Center
Mon 09:00:59 40.8219 -74.3522 233° Southwest 433 498 26,000  Level New Center
Mon 09:02:01 40.7428 -74.4822 231° Southwest 433 498 26,000  Level New Center
Mon 09:02:58 40.6769 -74.5908 231° Southwest 433 498 26,000 -915 Level New Center
Mon 09:03:59 40.5997 -74.7178 231° Southwest 428 493 24,200 -1,835 Descending New Center
Mon 09:04:59 40.5339 -74.8150 228° Southwest 410 472 22,300 -2,033 Descending New Center
Mon 09:06:00 40.4553 -74.9222 226° Southwest 391 450 20,100 -2,083 Descending New Center
Mon 09:07:00 40.3850 -75.0244 228° Southwest 380 437 18,100 -1,041 Descending New Center
Mon 09:08:01 40.3236 -75.1078 226° Southwest 375 432 18,000 -51 Descending New Center
Mon 09:08:58 40.2553 -75.2067 228° Southwest 370 426 18,000  Level New Center
Mon 09:10:00 40.1761 -75.3131 226° Southwest 375 432 18,000  Level New Center
Mon 09:11:00 40.1056 -75.4117 227° Southwest 381 438 18,000  Level New Center
Mon 09:11:59 40.0350 -75.5100 227° Southwest 381 438 18,000  Level New Center
Mon 09:13:00 39.9644 -75.6028 225° Southwest 373 429 18,000 50 Level New Center
Mon 09:13:58 39.8978 -75.7064 230° Southwest 373 429 18,100 -706 Climbing New Center
Mon 09:14:59 39.8408 -75.8186 237° Southwest 381 438 16,600 -1,792 Descending New Center
Mon 09:16:32 39.7500 -75.9833 234° Southwest 349 402 13,500 -1,804 Descending Potomac TRACON
Mon 09:17:32 39.7000 -76.0833 237° Southwest 324 373 12,000 -893 Descending Potomac TRACON
Mon 09:18:33 39.6667 -76.1667 243° Southwest 294 338 11,700 -1,193 Descending Potomac TRACON
Mon 09:20:33 39.5833 -76.3667 242° Southwest 278 320 8,400 -1,459 Descending Potomac TRACON
Mon 09:21:34 39.5500 -76.4500 243° Southwest 268 308 7,300 -1,289 Descending Potomac TRACON
Mon 09:22:34 39.5167 -76.5333 243° Southwest 260 299 5,800 -1,150 Descending Potomac TRACON
Mon 09:23:34 39.4833 -76.6000 237° Southwest 253 291 5,000 -421 Descending Potomac TRACON
Mon 09:24:28 39.4500 -76.6833 243° Southwest 255 293 5,000  Level Potomac TRACON
Mon 09:25:29 39.4167 -76.7500 237° Southwest 249 287 5,000  Level Potomac TRACON
Mon 09:26:23 39.3667 -76.8167 226° Southwest 252 290 5,000 -684 Level Potomac TRACON
Mon 09:27:23 39.3000 -76.8500 201° Southwest 245 282 3,700 -992 Descending Potomac TRACON
Mon 09:28:24 39.2333 -76.8667 191° South 242 278 3,000 -397 Descending Potomac TRACON
Mon 09:29:24 39.1833 -76.8500 166° South 186 214 2,900 -579 Descending Potomac TRACON
Mon 09:30:18 39.1833 -76.8000 90° East 170 196 1,900 -947 Descending Potomac TRACON
Mon 09:31:18 39.1833 -76.7500 90° East 133 153 1,100 -744 Descending Potomac TRACON
Mon 09:32:19 39.1833 -76.7000 90° East 130 150 400 -689 Descending Potomac TRACON

Login

Don't have an account? Register now (free) for customized features, flight alerts, and more!